createdAt,value
2022-09-16T00:00:09.861Z,0.00
2022-09-16T00:01:17.041Z,0.00
2022-09-16T00:02:09.655Z,0.00
2022-09-16T00:03:12.659Z,0.00
2022-09-16T00:04:09.881Z,0.00
2022-09-16T00:05:12.858Z,0.00
2022-09-16T00:06:09.830Z,0.00
2022-09-16T00:07:10.608Z,0.00
2022-09-16T00:08:09.805Z,0.00
2022-09-16T00:09:30.807Z,0.00
2022-09-16T00:10:09.538Z,0.00
2022-09-16T00:11:09.813Z,0.00
2022-09-16T00:12:10.533Z,0.00
2022-09-16T00:13:09.728Z,0.00
2022-09-16T00:14:09.532Z,0.00
2022-09-16T00:15:09.745Z,0.00
2022-09-16T00:16:09.550Z,0.00
2022-09-16T00:17:12.494Z,0.00
2022-09-16T00:18:12.483Z,0.00
2022-09-16T00:19:10.747Z,0.00
2022-09-16T00:20:09.728Z,0.00
2022-09-16T00:21:12.473Z,0.00
2022-09-16T00:22:09.656Z,0.00
2022-09-16T00:23:10.657Z,0.00
2022-09-16T00:24:09.636Z,0.00
2022-09-16T00:25:10.306Z,0.00
2022-09-16T00:26:09.375Z,0.00
2022-09-16T00:27:09.597Z,0.00
2022-09-16T00:28:09.355Z,0.00
2022-09-16T00:29:10.358Z,0.00
2022-09-16T00:30:10.600Z,0.00
2022-09-16T00:31:09.589Z,0.00
2022-09-16T00:32:09.583Z,0.00
2022-09-16T00:33:16.586Z,0.00
2022-09-16T00:34:10.318Z,0.00
2022-09-16T00:35:12.307Z,0.00
2022-09-16T00:36:09.527Z,0.00
2022-09-16T00:37:09.266Z,0.00
2022-09-16T00:38:09.298Z,0.00
2022-09-16T00:39:12.587Z,0.00
2022-09-16T00:40:09.493Z,0.00
2022-09-16T00:41:09.265Z,0.00
2022-09-16T00:42:12.249Z,0.00
2022-09-16T00:43:10.216Z,0.00
2022-09-16T00:44:10.201Z,0.00
2022-09-16T00:45:09.403Z,0.00
2022-09-16T00:46:10.434Z,0.00
2022-09-16T00:47:09.470Z,0.00
2022-09-16T00:48:09.370Z,0.00
2022-09-16T00:49:16.334Z,0.00
2022-09-16T00:50:10.151Z,0.00
2022-09-16T00:51:09.230Z,0.00
2022-09-16T00:52:12.136Z,0.00
2022-09-16T00:53:09.105Z,0.00
2022-09-16T00:54:09.319Z,0.00
2022-09-16T00:55:09.077Z,0.00
2022-09-16T00:56:09.037Z,0.00
2022-09-16T00:57:10.336Z,0.00
2022-09-16T00:58:09.038Z,0.00
2022-09-16T00:59:10.060Z,0.00
2022-09-16T01:00:09.274Z,0.00
2022-09-16T01:01:10.067Z,0.00
2022-09-16T01:02:09.008Z,0.00
2022-09-16T01:03:09.225Z,0.00
2022-09-16T01:04:08.980Z,0.00
2022-09-16T01:05:08.951Z,0.00
2022-09-16T01:06:08.973Z,0.00
2022-09-16T01:07:08.987Z,0.00
2022-09-16T01:08:08.909Z,0.00
2022-09-16T01:09:10.200Z,0.00
2022-09-16T01:10:08.909Z,0.00
2022-09-16T01:11:09.135Z,0.00
2022-09-16T01:12:09.134Z,0.00
2022-09-16T01:13:08.922Z,0.00
2022-09-16T01:14:08.863Z,0.00
2022-09-16T01:15:08.894Z,0.00
2022-09-16T01:16:08.873Z,0.00
2022-09-16T01:17:08.868Z,0.00
2022-09-16T01:18:08.818Z,0.00
2022-09-16T01:19:09.842Z,0.00
2022-09-16T01:20:08.823Z,0.00
2022-09-16T01:21:11.835Z,0.00
2022-09-16T01:22:08.995Z,0.00
2022-09-16T01:23:12.063Z,0.00
2022-09-16T01:24:08.995Z,0.00
2022-09-16T01:25:08.777Z,0.00
2022-09-16T01:26:08.812Z,0.00
2022-09-16T01:27:10.218Z,0.00
2022-09-16T01:28:08.742Z,0.00
2022-09-16T01:29:09.730Z,0.00
2022-09-16T01:30:08.684Z,0.00
2022-09-16T01:31:08.964Z,0.00
2022-09-16T01:32:08.671Z,0.00
2022-09-16T01:33:11.975Z,0.00
2022-09-16T01:34:08.899Z,0.00
2022-09-16T01:35:08.876Z,0.00
2022-09-16T01:36:08.646Z,0.00
2022-09-16T01:37:08.683Z,0.00
2022-09-16T01:38:08.606Z,0.00
2022-09-16T01:39:08.889Z,0.00
2022-09-16T01:40:08.626Z,0.00
2022-09-16T01:41:11.625Z,0.00
2022-09-16T01:42:08.630Z,0.00
2022-09-16T01:43:08.759Z,0.00
2022-09-16T01:44:08.546Z,0.00
2022-09-16T01:45:08.562Z,0.00
2022-09-16T01:46:08.562Z,0.00
2022-09-16T01:47:08.754Z,0.00
2022-09-16T01:48:08.777Z,0.00
2022-09-16T01:49:11.737Z,0.00
2022-09-16T01:50:11.534Z,0.00
2022-09-16T01:51:09.453Z,0.00
2022-09-16T01:52:08.458Z,0.00
2022-09-16T01:53:08.471Z,0.00
2022-09-16T01:54:08.696Z,0.00
2022-09-16T01:55:08.436Z,0.00
2022-09-16T01:56:08.417Z,0.00
2022-09-16T01:57:09.432Z,0.00
2022-09-16T01:58:09.401Z,0.00
2022-09-16T01:59:08.412Z,0.00
2022-09-16T02:00:11.637Z,0.00
2022-09-16T02:01:12.370Z,0.00
2022-09-16T02:02:11.697Z,0.00
2022-09-16T02:03:11.366Z,0.00
2022-09-16T02:04:08.399Z,0.00
2022-09-16T02:05:08.328Z,0.00
2022-09-16T02:06:23.841Z,0.00
2022-09-16T02:07:11.585Z,0.00
2022-09-16T02:08:08.323Z,0.00
2022-09-16T02:09:09.281Z,0.00
2022-09-16T02:10:08.548Z,0.00
2022-09-16T02:11:08.504Z,0.00
2022-09-16T02:12:08.470Z,0.00
2022-09-16T02:13:08.239Z,0.00
2022-09-16T02:14:09.269Z,0.00
2022-09-16T02:15:08.251Z,0.00
2022-09-16T02:16:09.490Z,0.00
2022-09-16T02:17:11.273Z,0.00
2022-09-16T02:18:08.416Z,0.00
2022-09-16T02:19:15.480Z,0.00
2022-09-16T02:20:08.179Z,0.00
2022-09-16T02:21:08.169Z,0.00
2022-09-16T02:22:11.174Z,0.00
2022-09-16T02:23:11.348Z,0.00
2022-09-16T02:24:08.358Z,0.00
2022-09-16T02:25:08.154Z,0.00
2022-09-16T02:26:08.113Z,0.00
2022-09-16T02:27:08.085Z,0.00
2022-09-16T02:28:09.345Z,0.00
2022-09-16T02:29:08.326Z,0.00
2022-09-16T02:30:08.044Z,0.00
2022-09-16T02:31:08.362Z,0.00
2022-09-16T02:32:08.064Z,0.00
2022-09-16T02:33:08.076Z,0.00
2022-09-16T02:34:08.015Z,0.00
2022-09-16T02:35:07.995Z,0.00
2022-09-16T02:36:08.024Z,0.00
2022-09-16T02:37:15.248Z,0.00
2022-09-16T02:38:08.200Z,0.00
2022-09-16T02:39:09.203Z,0.00
2022-09-16T02:40:09.282Z,0.00
2022-09-16T02:41:09.176Z,0.00
2022-09-16T02:42:08.438Z,0.00
2022-09-16T02:43:08.947Z,0.00
2022-09-16T02:44:09.184Z,0.00
2022-09-16T02:45:09.163Z,0.00
2022-09-16T02:46:07.943Z,0.00
2022-09-16T02:47:07.896Z,0.00
2022-09-16T02:48:15.165Z,0.00
2022-09-16T02:49:08.097Z,0.00
2022-09-16T02:50:23.404Z,0.00
2022-09-16T02:51:11.125Z,0.00
2022-09-16T02:52:08.125Z,0.00
2022-09-16T02:53:07.814Z,0.00
2022-09-16T02:54:07.804Z,0.00
2022-09-16T02:55:08.797Z,0.00
2022-09-16T02:56:08.038Z,0.00
2022-09-16T02:57:15.094Z,0.00
2022-09-16T02:58:07.829Z,0.00
2022-09-16T02:59:10.786Z,0.00
2022-09-16T03:00:08.010Z,0.00
2022-09-16T03:01:07.941Z,0.00
2022-09-16T03:02:07.821Z,0.00
2022-09-16T03:03:07.961Z,0.00
2022-09-16T03:04:08.030Z,0.00
2022-09-16T03:05:07.684Z,0.00
2022-09-16T03:06:08.928Z,0.00
2022-09-16T03:07:08.380Z,0.00
2022-09-16T03:08:07.914Z,0.00
2022-09-16T03:09:07.640Z,0.00
2022-09-16T03:10:07.661Z,0.00
2022-09-16T03:11:08.644Z,0.00
2022-09-16T03:12:07.630Z,0.00
2022-09-16T03:13:09.569Z,0.00
2022-09-16T03:14:07.859Z,0.00
2022-09-16T03:15:07.637Z,0.00
2022-09-16T03:16:08.848Z,0.00
2022-09-16T03:17:07.805Z,0.00
2022-09-16T03:18:07.528Z,0.00
2022-09-16T03:19:07.760Z,0.00
2022-09-16T03:20:07.542Z,0.00
2022-09-16T03:21:07.787Z,0.00
2022-09-16T03:22:08.461Z,0.00
2022-09-16T03:23:07.783Z,0.00
2022-09-16T03:24:07.479Z,0.00
2022-09-16T03:25:28.769Z,0.00
2022-09-16T03:26:07.693Z,0.00
2022-09-16T03:27:08.699Z,0.00
2022-09-16T03:28:07.431Z,0.00
2022-09-16T03:29:35.515Z,0.00
2022-09-16T03:30:07.667Z,0.00
2022-09-16T03:31:07.800Z,0.00
2022-09-16T03:32:22.925Z,0.00
2022-09-16T03:33:08.371Z,0.00
2022-09-16T03:34:08.387Z,0.00
2022-09-16T03:35:10.405Z,0.00
2022-09-16T03:36:14.628Z,0.00
2022-09-16T03:37:07.358Z,0.00
2022-09-16T03:38:07.614Z,0.00
2022-09-16T03:39:28.579Z,0.00
2022-09-16T03:40:08.452Z,0.00
2022-09-16T03:41:08.365Z,0.00
2022-09-16T03:42:22.763Z,0.00
2022-09-16T03:43:07.745Z,0.00
2022-09-16T03:44:10.529Z,0.00
2022-09-16T03:45:22.707Z,0.00
2022-09-16T03:46:07.508Z,0.00
2022-09-16T03:47:07.246Z,0.00
2022-09-16T03:48:08.473Z,0.00
2022-09-16T03:49:07.225Z,0.00
2022-09-16T03:50:10.455Z,0.00
2022-09-16T03:51:08.447Z,0.00
2022-09-16T03:52:07.179Z,0.00
2022-09-16T03:53:29.437Z,0.00
2022-09-16T03:54:07.193Z,0.00
2022-09-16T03:55:07.401Z,0.00
2022-09-16T03:56:07.141Z,0.00
2022-09-16T03:57:08.159Z,0.00
2022-09-16T03:58:08.146Z,0.00
2022-09-16T03:59:10.152Z,0.00
2022-09-16T04:00:07.349Z,0.00
2022-09-16T04:01:07.373Z,0.00
2022-09-16T04:02:14.461Z,0.00
2022-09-16T04:03:22.501Z,0.00
2022-09-16T04:04:10.311Z,0.00
2022-09-16T04:05:07.363Z,0.00
2022-09-16T04:06:07.268Z,0.00
2022-09-16T04:07:10.307Z,0.00
2022-09-16T04:08:07.306Z,0.00
2022-09-16T04:09:06.991Z,0.00
2022-09-16T04:10:07.023Z,0.00
2022-09-16T04:11:07.205Z,0.00
2022-09-16T04:12:07.010Z,0.00
2022-09-16T04:13:10.245Z,0.00
2022-09-16T04:14:07.195Z,0.00
2022-09-16T04:15:22.593Z,0.00
2022-09-16T04:16:07.245Z,0.00
2022-09-16T04:17:07.288Z,0.00
2022-09-16T04:18:07.125Z,0.00
2022-09-16T04:19:07.136Z,0.00
2022-09-16T04:20:06.937Z,0.00
2022-09-16T04:21:06.857Z,0.00
2022-09-16T04:22:06.885Z,0.00
2022-09-16T04:23:08.112Z,0.00
2022-09-16T04:24:12.060Z,0.00
2022-09-16T04:25:07.864Z,0.00
2022-09-16T04:26:09.869Z,0.00
2022-09-16T04:27:08.071Z,0.00
2022-09-16T04:28:22.131Z,0.00
2022-09-16T04:29:06.842Z,0.00
2022-09-16T04:30:09.810Z,0.00
2022-09-16T04:31:06.878Z,0.00
2022-09-16T04:32:10.042Z,0.00
2022-09-16T04:33:06.971Z,0.00
2022-09-16T04:34:06.778Z,0.00
2022-09-16T04:35:06.762Z,0.00
2022-09-16T04:36:10.478Z,0.00
2022-09-16T04:37:06.712Z,0.00
2022-09-16T04:38:22.186Z,0.00
2022-09-16T04:39:07.937Z,0.00
2022-09-16T04:40:07.941Z,0.00
2022-09-16T04:41:06.916Z,0.00
2022-09-16T04:42:09.713Z,0.00
2022-09-16T04:43:06.874Z,0.00
2022-09-16T04:44:13.938Z,0.00
2022-09-16T04:45:07.671Z,0.00
2022-09-16T04:46:09.723Z,0.00
2022-09-16T04:47:06.638Z,0.00
2022-09-16T04:48:09.672Z,0.00
2022-09-16T04:49:06.577Z,0.00
2022-09-16T04:50:06.824Z,0.00
2022-09-16T04:51:06.786Z,0.00
2022-09-16T04:52:06.807Z,0.00
2022-09-16T04:53:06.544Z,0.00
2022-09-16T04:54:21.922Z,0.00
2022-09-16T04:55:06.511Z,0.00
2022-09-16T04:56:06.743Z,0.00
2022-09-16T04:57:09.577Z,0.00
2022-09-16T04:58:06.737Z,0.00
2022-09-16T04:59:06.572Z,0.00
2022-09-16T05:00:06.476Z,0.00
2022-09-16T05:01:07.551Z,0.00
2022-09-16T05:02:06.452Z,0.00
2022-09-16T05:03:06.566Z,0.00
2022-09-16T05:04:06.455Z,0.00
2022-09-16T05:05:06.673Z,0.00
2022-09-16T05:06:07.141Z,0.00
2022-09-16T05:07:13.508Z,0.00
2022-09-16T05:08:06.391Z,0.00
2022-09-16T05:09:06.374Z,0.00
2022-09-16T05:10:06.407Z,0.00
2022-09-16T05:11:06.579Z,0.00
2022-09-16T05:12:06.355Z,0.00
2022-09-16T05:13:07.339Z,5.62
2022-09-16T05:14:06.567Z,5.62
2022-09-16T05:15:09.635Z,5.62
2022-09-16T05:16:07.422Z,5.62
2022-09-16T05:17:09.551Z,5.62
2022-09-16T05:18:09.585Z,5.62
2022-09-16T05:19:09.324Z,5.62
2022-09-16T05:20:06.272Z,5.62
2022-09-16T05:21:06.249Z,5.62
2022-09-16T05:22:06.234Z,5.62
2022-09-16T05:23:09.515Z,5.62
2022-09-16T05:24:07.472Z,5.62
2022-09-16T05:25:06.454Z,5.62
2022-09-16T05:26:06.433Z,5.62
2022-09-16T05:27:06.211Z,5.62
2022-09-16T05:28:13.236Z,5.62
2022-09-16T05:29:06.384Z,5.62
2022-09-16T05:30:06.165Z,5.62
2022-09-16T05:31:06.537Z,5.62
2022-09-16T05:32:08.096Z,5.62
2022-09-16T05:33:09.149Z,5.62
2022-09-16T05:34:06.141Z,11.25
2022-09-16T05:35:06.132Z,11.25
2022-09-16T05:36:06.096Z,11.25
2022-09-16T05:37:06.326Z,11.25
2022-09-16T05:38:07.092Z,11.25
2022-09-16T05:39:23.728Z,11.25
2022-09-16T05:40:07.151Z,11.25
2022-09-16T05:41:06.044Z,11.25
2022-09-16T05:42:09.089Z,11.25
2022-09-16T05:43:09.301Z,11.25
2022-09-16T05:44:09.264Z,16.88
2022-09-16T05:45:06.221Z,22.50
2022-09-16T05:46:06.027Z,28.12
2022-09-16T05:47:06.213Z,33.75
2022-09-16T05:48:05.966Z,33.75
2022-09-16T05:49:06.187Z,33.75
2022-09-16T05:50:06.136Z,33.75
2022-09-16T05:51:07.185Z,39.38
2022-09-16T05:52:07.149Z,39.38
2022-09-16T05:53:05.918Z,33.75
2022-09-16T05:54:13.247Z,39.38
2022-09-16T05:55:06.181Z,39.38
2022-09-16T05:56:05.887Z,39.38
2022-09-16T05:57:13.242Z,39.38
2022-09-16T05:58:06.076Z,39.38
2022-09-16T05:59:06.078Z,33.75
2022-09-16T06:00:06.078Z,39.38
2022-09-16T06:01:06.133Z,45.00
2022-09-16T06:02:06.174Z,33.75
2022-09-16T06:03:05.829Z,33.75
2022-09-16T06:04:06.019Z,28.12
2022-09-16T06:05:06.048Z,33.75
2022-09-16T06:06:05.778Z,33.75
2022-09-16T06:07:06.023Z,39.38
2022-09-16T06:08:05.956Z,39.38
2022-09-16T06:09:06.953Z,45.00
2022-09-16T06:10:05.965Z,50.62
2022-09-16T06:11:05.732Z,45.00
2022-09-16T06:12:05.972Z,45.00
2022-09-16T06:13:08.721Z,45.00
2022-09-16T06:14:05.684Z,45.00
2022-09-16T06:15:05.708Z,56.25
2022-09-16T06:16:05.728Z,50.62
2022-09-16T06:17:05.914Z,50.62
2022-09-16T06:18:06.673Z,50.62
2022-09-16T06:19:05.632Z,56.25
2022-09-16T06:20:05.613Z,50.62
2022-09-16T06:21:05.656Z,50.62
2022-09-16T06:22:05.673Z,67.50
2022-09-16T06:23:26.596Z,67.50
2022-09-16T06:24:05.829Z,90.00
2022-09-16T06:25:08.617Z,95.62
2022-09-16T06:26:05.823Z,90.00
2022-09-16T06:27:06.795Z,78.75
2022-09-16T06:28:05.823Z,61.88
2022-09-16T06:29:05.745Z,61.88
2022-09-16T06:30:05.756Z,90.00
2022-09-16T06:31:05.819Z,90.00
2022-09-16T06:32:05.768Z,78.75
2022-09-16T06:33:05.489Z,90.00
2022-09-16T06:34:05.741Z,78.75
2022-09-16T06:35:05.551Z,84.38
2022-09-16T06:36:06.720Z,78.75
2022-09-16T06:37:05.453Z,73.12
2022-09-16T06:38:06.468Z,90.00
2022-09-16T06:39:06.692Z,95.62
2022-09-16T06:40:05.713Z,95.62
2022-09-16T06:41:05.367Z,95.62
2022-09-16T06:42:05.404Z,90.00
2022-09-16T06:43:21.066Z,90.00
2022-09-16T06:44:05.363Z,84.38
2022-09-16T06:45:05.465Z,90.00
2022-09-16T06:46:05.650Z,78.75
2022-09-16T06:47:05.328Z,73.12
2022-09-16T06:48:05.579Z,78.75
2022-09-16T06:49:06.604Z,90.00
2022-09-16T06:50:05.656Z,95.62
2022-09-16T06:51:06.529Z,90.00
2022-09-16T06:52:06.520Z,95.62
2022-09-16T06:53:05.277Z,106.88
2022-09-16T06:54:05.518Z,106.88
2022-09-16T06:55:05.245Z,101.25
2022-09-16T06:56:05.252Z,95.62
2022-09-16T06:57:09.941Z,106.88
2022-09-16T06:58:06.483Z,112.50
2022-09-16T06:59:05.462Z,118.12
2022-09-16T07:00:06.239Z,106.88
2022-09-16T07:01:05.213Z,106.88
2022-09-16T07:02:05.218Z,118.12
2022-09-16T07:03:05.183Z,123.75
2022-09-16T07:04:05.409Z,123.75
2022-09-16T07:05:05.168Z,129.38
2022-09-16T07:06:05.696Z,118.12
2022-09-16T07:07:09.710Z,118.12
2022-09-16T07:08:06.159Z,112.50
2022-09-16T07:09:05.320Z,112.50
2022-09-16T07:10:12.320Z,129.38
2022-09-16T07:11:05.103Z,112.50
2022-09-16T07:12:08.132Z,135.00
2022-09-16T07:13:05.297Z,157.50
2022-09-16T07:14:05.091Z,163.12
2022-09-16T07:15:05.036Z,151.88
2022-09-16T07:16:13.444Z,157.50
2022-09-16T07:17:06.113Z,163.12
2022-09-16T07:18:08.020Z,168.75
2022-09-16T07:19:08.030Z,168.75
2022-09-16T07:20:04.984Z,168.75
2022-09-16T07:21:04.971Z,180.00
2022-09-16T07:22:06.042Z,185.62
2022-09-16T07:23:04.983Z,168.75
2022-09-16T07:24:05.896Z,146.25
2022-09-16T07:25:05.173Z,151.88
2022-09-16T07:26:08.018Z,146.25
2022-09-16T07:27:12.460Z,146.25
2022-09-16T07:28:05.154Z,163.12
2022-09-16T07:29:04.906Z,168.75
2022-09-16T07:30:08.930Z,174.38
2022-09-16T07:31:08.015Z,180.00
2022-09-16T07:32:05.115Z,163.12
2022-09-16T07:33:04.848Z,168.75
2022-09-16T07:34:05.104Z,191.25
2022-09-16T07:35:06.063Z,219.38
2022-09-16T07:36:04.854Z,174.38
2022-09-16T07:37:05.033Z,157.50
2022-09-16T07:38:04.792Z,185.62
2022-09-16T07:39:04.816Z,163.12
2022-09-16T07:40:05.832Z,157.50
2022-09-16T07:41:04.785Z,185.62
2022-09-16T07:42:06.209Z,174.38
2022-09-16T07:43:07.810Z,168.75
2022-09-16T07:44:04.756Z,146.25
2022-09-16T07:45:04.966Z,118.12
2022-09-16T07:46:05.888Z,118.12
2022-09-16T07:47:04.947Z,123.75
2022-09-16T07:48:04.697Z,106.88
2022-09-16T07:49:12.114Z,101.25
2022-09-16T07:50:04.899Z,90.00
2022-09-16T07:51:05.605Z,95.62
2022-09-16T07:52:04.675Z,90.00
2022-09-16T07:53:04.681Z,95.62
2022-09-16T07:54:12.133Z,112.50
2022-09-16T07:55:04.671Z,95.62
2022-09-16T07:56:04.639Z,123.75
2022-09-16T07:57:05.652Z,118.12
2022-09-16T07:58:04.866Z,112.50
2022-09-16T07:59:04.850Z,118.12
2022-09-16T08:00:04.818Z,168.75
2022-09-16T08:01:05.857Z,106.88
2022-09-16T08:02:04.898Z,101.25
2022-09-16T08:03:11.896Z,112.50
2022-09-16T08:04:04.551Z,118.12
2022-09-16T08:05:04.748Z,140.62
2022-09-16T08:06:07.799Z,118.12
2022-09-16T08:07:05.711Z,101.25
2022-09-16T08:08:04.482Z,118.12
2022-09-16T08:09:15.278Z,135.00
2022-09-16T08:10:05.448Z,196.88
2022-09-16T08:11:19.740Z,213.75
2022-09-16T08:12:07.431Z,264.38
2022-09-16T08:13:19.812Z,185.62
2022-09-16T08:14:05.650Z,146.25
2022-09-16T08:15:04.669Z,135.00
2022-09-16T08:16:04.421Z,174.38
2022-09-16T08:17:04.389Z,157.50
2022-09-16T08:18:04.385Z,106.88
2022-09-16T08:19:04.361Z,95.62
2022-09-16T08:20:05.394Z,112.50
2022-09-16T08:21:04.593Z,112.50
2022-09-16T08:22:04.397Z,90.00
2022-09-16T08:23:04.331Z,112.50
2022-09-16T08:24:04.314Z,118.12
2022-09-16T08:25:04.572Z,101.25
2022-09-16T08:26:04.519Z,78.75
2022-09-16T08:27:04.510Z,84.38
2022-09-16T08:28:04.526Z,84.38
2022-09-16T08:29:08.965Z,95.62
2022-09-16T08:30:05.485Z,90.00
2022-09-16T08:31:04.219Z,73.12
2022-09-16T08:32:04.542Z,73.12
2022-09-16T08:33:04.224Z,146.25
2022-09-16T08:34:04.468Z,135.00
2022-09-16T08:35:04.233Z,101.25
2022-09-16T08:36:04.186Z,84.38
2022-09-16T08:37:04.213Z,90.00
2022-09-16T08:38:04.384Z,101.25
2022-09-16T08:39:04.152Z,129.38
2022-09-16T08:40:04.198Z,135.00
2022-09-16T08:41:04.385Z,118.12
2022-09-16T08:42:04.156Z,163.12
2022-09-16T08:43:04.463Z,247.50
2022-09-16T08:44:04.336Z,196.88
2022-09-16T08:45:04.316Z,196.88
2022-09-16T08:46:04.140Z,196.88
2022-09-16T08:47:04.325Z,196.88
2022-09-16T08:48:04.066Z,219.38
2022-09-16T08:49:04.145Z,247.50
2022-09-16T08:50:04.024Z,275.62
2022-09-16T08:51:04.249Z,298.12
2022-09-16T08:52:04.277Z,208.12
2022-09-16T08:53:04.232Z,191.25
2022-09-16T08:54:04.041Z,168.75
2022-09-16T08:55:04.267Z,135.00
2022-09-16T08:56:03.977Z,118.12
2022-09-16T08:57:04.212Z,95.62
2022-09-16T08:58:03.994Z,101.25
2022-09-16T08:59:03.948Z,95.62
2022-09-16T09:00:03.919Z,90.00
2022-09-16T09:01:04.060Z,106.88
2022-09-16T09:02:08.286Z,112.50
2022-09-16T09:03:04.911Z,112.50
2022-09-16T09:04:05.154Z,106.88
2022-09-16T09:05:03.882Z,123.75
2022-09-16T09:06:03.876Z,101.25
2022-09-16T09:07:03.849Z,95.62
2022-09-16T09:08:03.849Z,101.25
2022-09-16T09:09:04.060Z,101.25
2022-09-16T09:10:08.443Z,95.62
2022-09-16T09:11:25.836Z,84.38
2022-09-16T09:12:07.427Z,78.75
2022-09-16T09:13:07.015Z,78.75
2022-09-16T09:14:04.049Z,73.12
2022-09-16T09:15:04.026Z,84.38
2022-09-16T09:16:05.105Z,90.00
2022-09-16T09:17:03.971Z,84.38
2022-09-16T09:18:04.012Z,95.62
2022-09-16T09:19:03.802Z,95.62
2022-09-16T09:20:03.761Z,101.25
2022-09-16T09:21:03.932Z,101.25
2022-09-16T09:22:03.754Z,140.62
2022-09-16T09:23:19.164Z,168.75
2022-09-16T09:24:03.925Z,168.75
2022-09-16T09:25:03.711Z,135.00
2022-09-16T09:26:03.672Z,84.38
2022-09-16T09:27:03.638Z,78.75
2022-09-16T09:28:03.724Z,78.75
2022-09-16T09:29:03.638Z,95.62
2022-09-16T09:30:04.871Z,95.62
2022-09-16T09:31:08.727Z,95.62
2022-09-16T09:32:04.909Z,95.62
2022-09-16T09:33:03.886Z,95.62
2022-09-16T09:34:10.896Z,95.62
2022-09-16T09:35:03.572Z,95.62
2022-09-16T09:36:04.605Z,101.25
2022-09-16T09:37:03.555Z,106.88
2022-09-16T09:38:10.794Z,140.62
2022-09-16T09:39:03.825Z,236.25
2022-09-16T09:40:03.835Z,264.38
2022-09-16T09:41:04.724Z,241.88
2022-09-16T09:42:03.488Z,219.38
2022-09-16T09:43:04.756Z,253.12
2022-09-16T09:44:03.695Z,270.00
2022-09-16T09:45:03.485Z,270.00
2022-09-16T09:46:04.783Z,174.38
2022-09-16T09:47:04.432Z,202.50
2022-09-16T09:48:03.425Z,106.88
2022-09-16T09:49:04.687Z,56.25
2022-09-16T09:50:06.643Z,45.00
2022-09-16T09:51:03.428Z,45.00
2022-09-16T09:52:03.491Z,67.50
2022-09-16T09:53:03.587Z,67.50
2022-09-16T09:54:03.363Z,67.50
2022-09-16T09:55:03.356Z,67.50
2022-09-16T09:56:03.597Z,112.50
2022-09-16T09:57:03.320Z,163.12
2022-09-16T09:58:04.589Z,163.12
2022-09-16T09:59:03.527Z,118.12
2022-09-16T10:00:03.308Z,123.75
2022-09-16T10:01:03.325Z,157.50
2022-09-16T10:02:03.371Z,157.50
2022-09-16T10:03:04.263Z,129.38
2022-09-16T10:04:18.614Z,112.50
2022-09-16T10:05:04.266Z,101.25
2022-09-16T10:06:04.236Z,112.50
2022-09-16T10:08:04.220Z,208.12
2022-09-16T10:09:03.460Z,180.00
2022-09-16T10:10:03.207Z,185.62
2022-09-16T10:11:03.401Z,191.25
2022-09-16T10:12:03.187Z,196.88
2022-09-16T10:13:03.151Z,247.50
2022-09-16T10:14:03.161Z,225.00
2022-09-16T10:15:03.164Z,236.25
2022-09-16T10:16:10.547Z,225.00
2022-09-16T10:17:04.129Z,247.50
2022-09-16T10:18:03.122Z,264.38
2022-09-16T10:19:04.384Z,247.50
2022-09-16T10:20:03.359Z,264.38
2022-09-16T10:21:03.126Z,241.88
2022-09-16T10:22:04.312Z,151.88
2022-09-16T10:23:03.097Z,73.12
2022-09-16T10:24:03.303Z,61.88
2022-09-16T10:25:03.038Z,67.50
2022-09-16T10:26:03.042Z,84.38
2022-09-16T10:27:04.025Z,135.00
2022-09-16T10:28:04.035Z,163.12
2022-09-16T10:29:03.224Z,140.62
2022-09-16T10:30:04.213Z,118.12
2022-09-16T10:31:03.016Z,129.38
2022-09-16T10:32:04.302Z,140.62
2022-09-16T10:33:04.183Z,140.62
2022-09-16T10:34:04.250Z,135.00
2022-09-16T10:35:03.944Z,157.50
2022-09-16T10:36:03.167Z,151.88
2022-09-16T10:37:02.913Z,163.12
2022-09-16T10:38:03.953Z,196.88
2022-09-16T10:39:05.275Z,185.62
2022-09-16T10:40:06.160Z,180.00
2022-09-16T10:41:06.195Z,180.00
2022-09-16T10:42:03.079Z,202.50
2022-09-16T10:43:02.955Z,180.00
2022-09-16T10:44:02.872Z,191.25
2022-09-16T10:45:03.075Z,180.00
2022-09-16T10:46:05.972Z,180.00
2022-09-16T10:47:03.047Z,185.62
2022-09-16T10:48:07.073Z,151.88
2022-09-16T10:49:02.817Z,95.62
2022-09-16T10:50:03.817Z,67.50
2022-09-16T10:51:02.787Z,61.88
2022-09-16T10:52:02.980Z,56.25
2022-09-16T10:53:10.156Z,50.62
2022-09-16T10:54:02.717Z,50.62
2022-09-16T10:55:02.708Z,50.62
2022-09-16T10:56:03.950Z,61.88
2022-09-16T10:57:02.680Z,78.75
2022-09-16T10:58:02.686Z,95.62
2022-09-16T10:59:03.990Z,106.88
2022-09-16T11:00:02.671Z,118.12
2022-09-16T11:01:05.985Z,106.88
2022-09-16T11:02:02.866Z,101.25
2022-09-16T11:03:02.631Z,90.00
2022-09-16T11:04:03.767Z,78.75
2022-09-16T11:05:09.982Z,90.00
2022-09-16T11:06:17.877Z,135.00
2022-09-16T11:07:02.865Z,157.50
2022-09-16T11:08:02.614Z,146.25
2022-09-16T11:09:02.554Z,151.88
2022-09-16T11:10:02.576Z,135.00
2022-09-16T11:11:04.373Z,140.62
2022-09-16T11:12:07.686Z,151.88
2022-09-16T11:13:02.541Z,168.75
2022-09-16T11:14:03.537Z,202.50
2022-09-16T11:15:02.549Z,225.00
2022-09-16T11:16:03.573Z,275.62
2022-09-16T11:17:09.627Z,275.62
2022-09-16T11:18:02.710Z,213.75
2022-09-16T11:19:03.705Z,151.88
2022-09-16T11:20:02.455Z,84.38
2022-09-16T11:21:03.689Z,56.25
2022-09-16T11:22:05.460Z,73.12
2022-09-16T11:23:02.440Z,123.75
2022-09-16T11:24:02.657Z,140.62
2022-09-16T11:25:05.429Z,151.88
2022-09-16T11:26:02.410Z,168.75
2022-09-16T11:27:02.372Z,180.00
2022-09-16T11:28:02.360Z,208.12
2022-09-16T11:29:02.386Z,202.50
2022-09-16T11:30:02.351Z,174.38
2022-09-16T11:31:02.348Z,157.50
2022-09-16T11:32:03.553Z,163.12
2022-09-16T11:33:03.399Z,180.00
2022-09-16T11:34:02.376Z,196.88
2022-09-16T11:35:05.632Z,202.50
2022-09-16T11:36:02.502Z,208.12
2022-09-16T11:37:02.282Z,219.38
2022-09-16T11:38:26.540Z,219.38
2022-09-16T11:39:02.271Z,225.00
2022-09-16T11:40:02.345Z,213.75
2022-09-16T11:41:03.471Z,196.88
2022-09-16T11:42:05.223Z,213.75
2022-09-16T11:43:09.438Z,236.25
2022-09-16T11:44:03.482Z,241.88
2022-09-16T11:45:02.275Z,219.38
2022-09-16T11:46:03.318Z,219.38
2022-09-16T11:47:02.199Z,230.62
2022-09-16T11:48:02.145Z,247.50
2022-09-16T11:49:03.154Z,264.38
2022-09-16T11:50:02.354Z,258.75
2022-09-16T11:51:02.166Z,258.75
2022-09-16T11:52:02.094Z,258.75
2022-09-16T11:53:05.413Z,247.50
2022-09-16T11:54:05.147Z,241.88
2022-09-16T11:55:02.115Z,230.62
2022-09-16T11:56:03.077Z,225.00
2022-09-16T11:57:02.086Z,236.25
2022-09-16T11:58:02.037Z,241.88
2022-09-16T11:59:05.101Z,230.62
2022-09-16T12:00:02.030Z,213.75
2022-09-16T12:01:02.058Z,219.38
2022-09-16T12:02:05.124Z,208.12
2022-09-16T12:03:03.083Z,196.88
2022-09-16T12:04:01.968Z,140.62
2022-09-16T12:05:05.264Z,101.25
2022-09-16T12:06:02.980Z,78.75
2022-09-16T12:07:01.984Z,73.12
2022-09-16T12:08:02.958Z,67.50
2022-09-16T12:09:03.117Z,78.75
2022-09-16T12:10:03.218Z,90.00
2022-09-16T12:11:17.352Z,118.12
2022-09-16T12:12:01.926Z,140.62
2022-09-16T12:13:01.883Z,191.25
2022-09-16T12:14:05.864Z,157.50
2022-09-16T12:15:05.713Z,118.12
2022-09-16T12:16:05.123Z,123.75
2022-09-16T12:17:02.099Z,123.75
2022-09-16T12:18:04.886Z,84.38
2022-09-16T12:19:01.837Z,67.50
2022-09-16T12:20:01.811Z,73.12
2022-09-16T12:21:01.803Z,73.12
2022-09-16T12:22:01.838Z,101.25
2022-09-16T12:23:03.028Z,95.62
2022-09-16T12:24:03.233Z,90.00
2022-09-16T12:25:02.043Z,90.00
2022-09-16T12:26:02.991Z,90.00
2022-09-16T12:27:02.976Z,106.88
2022-09-16T12:28:01.744Z,129.38
2022-09-16T12:29:01.728Z,151.88
2022-09-16T12:30:04.757Z,174.38
2022-09-16T12:31:04.840Z,135.00
2022-09-16T12:32:08.912Z,157.50
2022-09-16T12:33:01.704Z,208.12
2022-09-16T12:34:01.673Z,236.25
2022-09-16T12:35:01.766Z,241.88
2022-09-16T12:36:02.729Z,219.38
2022-09-16T12:37:01.702Z,219.38
2022-09-16T12:38:04.677Z,202.50
2022-09-16T12:39:01.895Z,208.12
2022-09-16T12:40:04.718Z,202.50
2022-09-16T12:41:04.688Z,191.25
2022-09-16T12:42:08.712Z,196.88
2022-09-16T12:43:01.800Z,196.88
2022-09-16T12:44:17.095Z,208.12
2022-09-16T12:45:02.609Z,196.88
2022-09-16T12:46:01.825Z,180.00
2022-09-16T12:47:01.541Z,180.00
2022-09-16T12:48:01.530Z,191.25
2022-09-16T12:49:01.525Z,174.38
2022-09-16T12:50:01.778Z,174.38
2022-09-16T12:51:01.521Z,135.00
2022-09-16T12:52:04.787Z,90.00
2022-09-16T12:53:01.530Z,67.50
2022-09-16T12:54:02.460Z,56.25
2022-09-16T12:55:08.172Z,50.62